Time,TemperatureF,DewpointF,PressureIn,WindDirection,WindDirectionDegrees,WindSpeedMPH,WindSpeedGustMPH,Humidity,HourlyPrecipIn,Conditions,Clouds,dailyrainin,SoftwareType,DateUTC
2013-05-01 00:00:00,51.7,49.7,30.10,East,86,0.0,0.0,93,0.00,,,0.00,Wunderground v.1.15,2013-05-01 04:00:00,
2013-05-01 00:05:00,51.6,49.6,30.10,East,86,0.0,0.0,93,0.00,,,0.00,Wunderground v.1.15,2013-05-01 04:05:00,
2013-05-01 00:10:00,51.6,49.6,30.10,East,86,0.0,0.0,93,0.00,,,0.00,Wunderground v.1.15,2013-05-01 04:10:00,
2013-05-01 00:15:00,51.4,49.4,30.10,East,86,0.0,0.0,93,0.00,,,0.00,Wunderground v.1.15,2013-05-01 04:15:00,
2013-05-01 00:25:00,51.2,49.2,30.10,East,86,0.0,0.0,93,0.00,,,0.00,Wunderground v.1.15,2013-05-01 04:25:00,
2013-05-01 00:35:00,51.1,49.4,30.10,East,86,0.0,0.0,94,0.00,,,0.00,Wunderground v.1.15,2013-05-01 04:35:00,
2013-05-01 00:40:00,51.1,49.4,30.10,East,86,0.0,0.0,94,0.00,,,0.00,Wunderground v.1.15,2013-05-01 04:40:00,
2013-05-01 00:45:00,51.0,49.3,30.11,East,86,0.0,0.0,94,0.00,,,0.00,Wunderground v.1.15,2013-05-01 04:45:00,
2013-05-01 00:55:00,50.9,49.2,30.11,East,86,0.0,0.0,94,0.00,,,0.00,Wunderground v.1.15,2013-05-01 04:55:00,
2013-05-01 01:00:00,51.0,49.6,30.11,East,86,0.0,0.0,95,0.00,,,0.00,Wunderground v.1.15,2013-05-01 05:00:00,
2013-05-01 01:10:00,51.0,49.3,30.11,East,86,0.0,0.0,94,0.00,,,0.00,Wunderground v.1.15,2013-05-01 05:10:00,
2013-05-01 01:15:00,50.9,49.2,30.11,East,86,0.0,0.0,94,0.00,,,0.00,Wunderground v.1.15,2013-05-01 05:15:00,
2013-05-01 01:25:00,50.9,49.5,30.11,East,86,0.0,0.0,95,0.00,,,0.00,Wunderground v.1.15,2013-05-01 05:25:00,
2013-05-01 01:35:00,50.9,49.5,30.11,East,86,0.0,0.0,95,0.00,,,0.00,Wunderground v.1.15,2013-05-01 05:35:00,
2013-05-01 01:45:00,51.0,49.6,30.12,East,86,0.0,0.0,95,0.00,,,0.00,Wunderground v.1.15,2013-05-01 05:45:00,
2013-05-01 01:50:00,50.9,49.5,30.12,East,86,0.0,0.0,95,0.00,,,0.00,Wunderground v.1.15,2013-05-01 05:50:00,
2013-05-01 02:00:00,50.8,49.4,30.11,East,86,0.0,0.0,95,0.00,,,0.00,Wunderground v.1.15,2013-05-01 06:00:00,
2013-05-01 02:05:00,50.6,49.2,30.11,East,86,0.0,0.0,95,0.00,,,0.00,Wunderground v.1.15,2013-05-01 06:05:00,
2013-05-01 02:15:00,50.5,49.1,30.11,East,86,0.0,0.0,95,0.00,,,0.00,Wunderground v.1.15,2013-05-01 06:15:00,
2013-05-01 02:20:00,50.3,48.9,30.11,East,86,0.0,0.0,95,0.00,,,0.00,Wunderground v.1.15,2013-05-01 06:20:00,
2013-05-01 02:30:00,50.3,48.9,30.11,East,86,0.0,0.0,95,0.00,,,0.00,Wunderground v.1.15,2013-05-01 06:30:00,
2013-05-01 02:35:00,50.4,49.0,30.11,East,86,0.0,0.0,95,0.00,,,0.00,Wunderground v.1.15,2013-05-01 06:35:00,
2013-05-01 02:45:00,50.7,49.6,30.11,East,86,0.0,0.0,96,0.00,,,0.00,Wunderground v.1.15,2013-05-01 06:45:00,
2013-05-01 02:50:00,50.7,49.3,30.11,East,86,0.0,0.0,95,0.00,,,0.00,Wunderground v.1.15,2013-05-01 06:50:00,
2013-05-01 03:00:00,50.8,49.7,30.11,East,86,0.0,0.0,96,0.00,,,0.00,Wunderground v.1.15,2013-05-01 07:00:00,
2013-05-01 03:10:00,50.6,49.2,30.11,East,86,0.0,0.0,95,0.00,,,0.00,Wunderground v.1.15,2013-05-01 07:10:00,
2013-05-01 03:15:00,50.6,49.2,30.11,East,86,0.0,0.0,95,0.00,,,0.00,Wunderground v.1.15,2013-05-01 07:15:00,
2013-05-01 03:25:00,50.4,49.0,30.12,East,86,0.0,0.0,95,0.00,,,0.00,Wunderground v.1.15,2013-05-01 07:25:00,
2013-05-01 03:30:00,50.5,49.4,30.12,East,86,0.0,0.0,96,0.00,,,0.00,Wunderground v.1.15,2013-05-01 07:30:00,
2013-05-01 03:40:00,50.5,49.4,30.12,East,86,0.0,0.0,96,0.00,,,0.00,Wunderground v.1.15,2013-05-01 07:40:00,
2013-05-01 03:50:00,50.4,49.0,30.13,East,86,0.0,0.0,95,0.00,,,0.00,Wunderground v.1.15,2013-05-01 07:50:00,
2013-05-01 03:55:00,50.4,49.3,30.13,East,86,0.0,0.0,96,0.00,,,0.00,Wunderground v.1.15,2013-05-01 07:55:00,
2013-05-01 04:00:00,50.4,49.3,30.13,East,86,0.0,0.0,96,0.00,,,0.00,Wunderground v.1.15,2013-05-01 08:00:00,
2013-05-01 04:10:00,50.3,49.2,30.13,East,86,0.0,0.0,96,0.00,,,0.00,Wunderground v.1.15,2013-05-01 08:10:00,
2013-05-01 04:20:00,50.1,49.0,30.13,East,86,0.0,0.0,96,0.00,,,0.00,Wunderground v.1.15,2013-05-01 08:20:00,
2013-05-01 04:25:00,50.0,48.9,30.14,East,86,0.0,0.0,96,0.00,,,0.00,Wunderground v.1.15,2013-05-01 08:25:00,
2013-05-01 04:35:00,50.1,49.0,30.14,East,86,0.0,0.0,96,0.00,,,0.00,Wunderground v.1.15,2013-05-01 08:35:00,
2013-05-01 04:40:00,50.1,49.0,30.14,East,86,0.0,0.0,96,0.00,,,0.00,Wunderground v.1.15,2013-05-01 08:40:00,
2013-05-01 04:50:00,50.1,49.0,30.14,East,86,0.0,0.0,96,0.00,,,0.00,Wunderground v.1.15,2013-05-01 08:50:00,
2013-05-01 04:55:00,49.8,48.7,30.14,East,86,0.0,0.0,96,0.00,,,0.00,Wunderground v.1.15,2013-05-01 08:55:00,
2013-05-01 05:00:00,49.8,48.7,30.14,East,86,0.0,0.0,96,0.00,,,0.00,Wunderground v.1.15,2013-05-01 09:00:00,
2013-05-01 05:10:00,49.6,48.5,30.15,East,86,0.0,0.0,96,0.00,,,0.00,Wunderground v.1.15,2013-05-01 09:10:00,
2013-05-01 05:20:00,49.7,48.6,30.15,East,86,0.0,0.0,96,0.00,,,0.00,Wunderground v.1.15,2013-05-01 09:20:00,
2013-05-01 05:25:00,49.7,48.6,30.15,East,86,0.0,0.0,96,0.00,,,0.00,Wunderground v.1.15,2013-05-01 09:25:00,
2013-05-01 05:35:00,50.1,49.3,30.15,East,86,0.0,0.0,97,0.00,,,0.00,Wunderground v.1.15,2013-05-01 09:35:00,
2013-05-01 05:40:00,50.0,48.9,30.15,East,86,0.0,0.0,96,0.00,,,0.00,Wunderground v.1.15,2013-05-01 09:40:00,
2013-05-01 05:50:00,50.3,49.5,30.16,East,86,0.0,0.0,97,0.00,,,0.00,Wunderground v.1.15,2013-05-01 09:50:00,
2013-05-01 06:00:00,51.2,50.4,30.16,East,86,0.0,0.0,97,0.00,,,0.00,Wunderground v.1.15,2013-05-01 10:00:00,
2013-05-01 06:10:00,51.5,50.7,30.16,East,86,0.0,0.0,97,0.00,,,0.00,Wunderground v.1.15,2013-05-01 10:10:00,
2013-05-01 06:20:00,51.9,51.1,30.17,East,86,0.0,0.0,97,0.00,,,0.00,Wunderground v.1.15,2013-05-01 10:20:00,
2013-05-01 06:25:00,51.8,51.0,30.17,East,86,0.0,0.0,97,0.00,,,0.00,Wunderground v.1.15,2013-05-01 10:25:00,
2013-05-01 06:35:00,52.6,51.8,30.18,East,86,0.0,0.0,97,0.00,,,0.00,Wunderground v.1.15,2013-05-01 10:35:00,
2013-05-01 06:45:00,52.8,51.7,30.18,East,86,0.0,0.0,96,0.00,,,0.00,Wunderground v.1.15,2013-05-01 10:45:00,
2013-05-01 06:50:00,52.8,51.7,30.18,East,86,0.0,0.0,96,0.00,,,0.00,Wunderground v.1.15,2013-05-01 10:50:00,
2013-05-01 07:00:00,52.9,51.8,30.19,East,86,0.0,0.0,96,0.00,,,0.00,Wunderground v.1.15,2013-05-01 11:00:00,
2013-05-01 07:05:00,53.0,51.6,30.19,East,86,0.0,0.0,95,0.00,,,0.00,Wunderground v.1.15,2013-05-01 11:05:00,
2013-05-01 07:15:00,53.0,51.6,30.20,East,86,0.0,0.0,95,0.00,,,0.00,Wunderground v.1.15,2013-05-01 11:15:00,
2013-05-01 07:20:00,53.2,51.8,30.20,East,86,0.0,0.0,95,0.00,,,0.00,Wunderground v.1.15,2013-05-01 11:20:00,
2013-05-01 07:30:00,53.2,51.5,30.20,East,86,0.0,0.0,94,0.00,,,0.00,Wunderground v.1.15,2013-05-01 11:30:00,
2013-05-01 07:35:00,53.1,51.4,30.21,East,86,0.0,0.0,94,0.00,,,0.00,Wunderground v.1.15,2013-05-01 11:35:00,
2013-05-01 07:45:00,54.3,52.9,30.21,East,86,0.0,0.0,95,0.00,,,0.00,Wunderground v.1.15,2013-05-01 11:45:00,
2013-05-01 07:50:00,55.2,53.8,30.22,East,86,0.0,0.0,95,0.00,,,0.00,Wunderground v.1.15,2013-05-01 11:50:00,
2013-05-01 08:00:00,57.8,55.8,30.22,East,86,0.0,0.0,93,0.00,,,0.00,Wunderground v.1.15,2013-05-01 12:00:00,
2013-05-01 08:05:00,58.8,56.2,30.22,East,86,0.0,0.0,91,0.00,,,0.00,Wunderground v.1.15,2013-05-01 12:05:00,
2013-05-01 08:15:00,60.6,56.1,30.22,ESE,121,0.0,0.0,85,0.00,,,0.00,Wunderground v.1.15,2013-05-01 12:15:00,
2013-05-01 08:20:00,61.3,56.1,30.22,East,89,0.0,0.0,83,0.00,,,0.00,Wunderground v.1.15,2013-05-01 12:20:00,
2013-05-01 08:30:00,61.9,56.0,30.23,SW,221,1.0,1.0,81,0.00,,,0.00,Wunderground v.1.15,2013-05-01 12:30:00,
2013-05-01 08:40:00,62.2,56.0,30.23,ENE,76,1.0,1.0,80,0.00,,,0.00,Wunderground v.1.15,2013-05-01 12:40:00,
2013-05-01 08:50:00,63.4,56.1,30.23,WNW,292,1.0,1.0,77,0.00,,,0.00,Wunderground v.1.15,2013-05-01 12:50:00,
2013-05-01 08:55:00,63.6,55.5,30.23,WSW,250,1.0,1.0,75,0.00,,,0.00,Wunderground v.1.15,2013-05-01 12:55:00,
2013-05-01 09:00:00,63.7,56.0,30.23,SW,224,2.0,2.0,76,0.00,,,0.00,Wunderground v.1.15,2013-05-01 13:00:00,
2013-05-01 09:10:00,64.6,56.5,30.23,ESE,109,1.0,1.0,75,0.00,,,0.00,Wunderground v.1.15,2013-05-01 13:10:00,
2013-05-01 09:20:00,64.8,55.9,30.24,SE,129,1.0,1.0,73,0.00,,,0.00,Wunderground v.1.15,2013-05-01 13:20:00,
2013-05-01 09:30:00,64.3,55.8,30.24,SE,127,2.0,2.0,74,0.00,,,0.00,Wunderground v.1.15,2013-05-01 13:30:00,
2013-05-01 09:40:00,64.1,55.6,30.24,SE,146,2.0,3.0,74,0.00,,,0.00,Wunderground v.1.15,2013-05-01 13:40:00,
2013-05-01 09:50:00,64.8,56.3,30.24,East,82,1.0,1.0,74,0.00,,,0.00,Wunderground v.1.15,2013-05-01 13:50:00,
2013-05-01 09:55:00,64.3,55.5,30.24,ENE,67,2.0,2.0,73,0.00,,,0.00,Wunderground v.1.15,2013-05-01 13:55:00,
2013-05-01 10:00:00,64.2,55.4,30.24,NE,44,3.0,4.0,73,0.00,,,0.00,Wunderground v.1.15,2013-05-01 14:00:00,
2013-05-01 10:10:00,64.9,55.7,30.25,ENE,67,2.0,2.0,72,0.00,,,0.00,Wunderground v.1.15,2013-05-01 14:10:00,
2013-05-01 10:20:00,64.4,55.6,30.25,East,100,3.0,3.0,73,0.00,,,0.00,Wunderground v.1.15,2013-05-01 14:20:00,
2013-05-01 10:30:00,65.1,56.2,30.25,ENE,72,2.0,3.0,73,0.00,,,0.00,Wunderground v.1.15,2013-05-01 14:30:00,
2013-05-01 10:35:00,65.8,56.5,30.25,ENE,67,2.0,3.0,72,0.00,,,0.00,Wunderground v.1.15,2013-05-01 14:35:00,
2013-05-01 10:45:00,66.2,56.1,30.24,East,93,2.0,3.0,70,0.00,,,0.00,Wunderground v.1.15,2013-05-01 14:45:00,
2013-05-01 10:50:00,66.5,56.8,30.24,SW,214,2.0,2.0,71,0.00,,,0.00,Wunderground v.1.15,2013-05-01 14:50:00,
2013-05-01 11:00:00,67.8,57.7,30.25,NE,51,1.0,2.0,70,0.00,,,0.00,Wunderground v.1.15,2013-05-01 15:00:00,
2013-05-01 11:10:00,67.6,57.9,30.25,East,89,2.0,2.0,71,0.00,,,0.00,Wunderground v.1.15,2013-05-01 15:10:00,
2013-05-01 11:20:00,68.0,57.0,30.25,East,100,2.0,4.0,68,0.00,,,0.00,Wunderground v.1.15,2013-05-01 15:20:00,
2013-05-01 11:30:00,68.8,58.2,30.25,ENE,76,2.0,3.0,69,0.00,,,0.00,Wunderground v.1.15,2013-05-01 15:30:00,
2013-05-01 11:35:00,68.8,57.8,30.24,ENE,57,2.0,3.0,68,0.00,,,0.00,Wunderground v.1.15,2013-05-01 15:35:00,
2013-05-01 11:45:00,69.0,58.0,30.24,ESE,123,2.0,4.0,68,0.00,,,0.00,Wunderground v.1.15,2013-05-01 15:45:00,
2013-05-01 11:50:00,68.7,58.1,30.24,NE,56,2.0,3.0,69,0.00,,,0.00,Wunderground v.1.15,2013-05-01 15:50:00,
2013-05-01 12:00:00,68.7,57.7,30.24,SSE,148,3.0,3.0,68,0.00,,,0.00,Wunderground v.1.15,2013-05-01 16:00:00,
2013-05-01 12:10:00,69.6,58.2,30.24,SW,236,2.0,2.0,67,0.00,,,0.00,Wunderground v.1.15,2013-05-01 16:10:00,
2013-05-01 12:15:00,69.9,58.0,30.24,ESE,106,2.0,2.0,66,0.00,,,0.00,Wunderground v.1.15,2013-05-01 16:15:00,
2013-05-01 12:25:00,70.0,58.1,30.24,ESE,123,2.0,4.0,66,0.00,,,0.00,Wunderground v.1.15,2013-05-01 16:25:00,
2013-05-01 12:35:00,70.3,57.5,30.24,NE,44,2.0,3.0,64,0.00,,,0.00,Wunderground v.1.15,2013-05-01 16:35:00,
2013-05-01 12:45:00,69.7,58.7,30.24,East,91,3.0,4.0,68,0.00,,,0.00,Wunderground v.1.15,2013-05-01 16:45:00,
2013-05-01 12:50:00,69.9,57.6,30.24,East,86,3.0,3.0,65,0.00,,,0.00,Wunderground v.1.15,2013-05-01 16:50:00,
2013-05-01 13:00:00,70.1,57.4,30.24,ESE,113,3.0,3.0,64,0.00,,,0.00,Wunderground v.1.15,2013-05-01 17:00:00,
2013-05-01 13:10:00,70.6,58.7,30.24,NE,40,3.0,3.0,66,0.00,,,0.00,Wunderground v.1.15,2013-05-01 17:10:00,
2013-05-01 13:20:00,71.6,58.3,30.24,ENE,63,2.0,5.0,63,0.00,,,0.00,Wunderground v.1.15,2013-05-01 17:20:00,
2013-05-01 13:30:00,72.2,59.3,30.24,ENE,58,3.0,3.0,64,0.00,,,0.00,Wunderground v.1.15,2013-05-01 17:30:00,
2013-05-01 13:35:00,72.4,59.1,30.24,SE,136,2.0,3.0,63,0.00,,,0.00,Wunderground v.1.15,2013-05-01 17:35:00,
2013-05-01 13:45:00,73.5,58.8,30.24,ESE,112,2.0,4.0,60,0.00,,,0.00,Wunderground v.1.15,2013-05-01 17:45:00,
2013-05-01 13:55:00,73.5,58.8,30.24,SSE,163,3.0,5.0,60,0.00,,,0.00,Wunderground v.1.15,2013-05-01 17:55:00,
2013-05-01 14:00:00,73.2,59.4,30.24,ENE,65,3.0,5.0,62,0.00,,,0.00,Wunderground v.1.15,2013-05-01 18:00:00,
2013-05-01 14:10:00,73.3,59.0,30.24,East,96,3.0,5.0,61,0.00,,,0.00,Wunderground v.1.15,2013-05-01 18:10:00,
2013-05-01 14:15:00,73.4,58.7,30.24,SE,130,4.0,5.0,60,0.00,,,0.00,Wunderground v.1.15,2013-05-01 18:15:00,
2013-05-01 14:25:00,74.0,59.7,30.24,SW,217,3.0,3.0,61,0.00,,,0.00,Wunderground v.1.15,2013-05-01 18:25:00,
2013-05-01 14:30:00,74.6,59.3,30.23,SSW,208,2.0,2.0,59,0.00,,,0.00,Wunderground v.1.15,2013-05-01 18:30:00,
2013-05-01 14:40:00,74.7,59.9,30.23,ENE,75,3.0,3.0,60,0.00,,,0.00,Wunderground v.1.15,2013-05-01 18:40:00,
2013-05-01 14:50:00,76.8,61.4,30.24,SW,236,1.0,1.0,59,0.00,,,0.00,Wunderground v.1.15,2013-05-01 18:50:00,
2013-05-01 14:55:00,77.5,61.1,30.23,SW,227,1.0,1.0,57,0.00,,,0.00,Wunderground v.1.15,2013-05-01 18:55:00,
2013-05-01 15:00:00,77.8,60.3,30.23,East,86,1.0,3.0,55,0.00,,,0.00,Wunderground v.1.15,2013-05-01 19:00:00,
2013-05-01 15:10:00,76.4,61.0,30.23,East,82,2.0,2.0,59,0.00,,,0.00,Wunderground v.1.15,2013-05-01 19:10:00,
2013-05-01 15:20:00,75.5,59.7,30.23,East,88,2.0,6.0,58,0.00,,,0.00,Wunderground v.1.15,2013-05-01 19:20:00,
2013-05-01 15:25:00,75.2,58.9,30.23,ENE,74,3.0,6.0,57,0.00,,,0.00,Wunderground v.1.15,2013-05-01 19:25:00,
2013-05-01 15:35:00,74.7,58.5,30.23,SW,229,3.0,4.0,57,0.00,,,0.00,Wunderground v.1.15,2013-05-01 19:35:00,
2013-05-01 15:45:00,76.3,60.4,30.23,ENE,64,1.0,3.0,58,0.00,,,0.00,Wunderground v.1.15,2013-05-01 19:45:00,
2013-05-01 15:50:00,75.4,59.1,30.23,NE,49,2.0,2.0,57,0.00,,,0.00,Wunderground v.1.15,2013-05-01 19:50:00,
2013-05-01 16:00:00,75.2,58.9,30.23,East,86,3.0,3.0,57,0.00,,,0.00,Wunderground v.1.15,2013-05-01 20:00:00,
2013-05-01 16:10:00,75.1,59.3,30.23,East,89,3.0,6.0,58,0.00,,,0.00,Wunderground v.1.15,2013-05-01 20:10:00,
2013-05-01 16:15:00,75.3,59.5,30.23,ENE,73,2.0,6.0,58,0.00,,,0.00,Wunderground v.1.15,2013-05-01 20:15:00,
2013-05-01 16:25:00,74.0,58.3,30.23,ESE,104,3.0,5.0,58,0.00,,,0.00,Wunderground v.1.15,2013-05-01 20:25:00,
2013-05-01 16:30:00,74.1,58.9,30.23,NE,54,2.0,3.0,59,0.00,,,0.00,Wunderground v.1.15,2013-05-01 20:30:00,
2013-05-01 16:40:00,74.0,58.8,30.23,East,98,2.0,2.0,59,0.00,,,0.00,Wunderground v.1.15,2013-05-01 20:40:00,
2013-05-01 16:50:00,74.7,59.4,30.23,ESE,105,2.0,2.0,59,0.00,,,0.00,Wunderground v.1.15,2013-05-01 20:50:00,
2013-05-01 16:55:00,74.7,58.9,30.23,ENE,65,2.0,5.0,58,0.00,,,0.00,Wunderground v.1.15,2013-05-01 20:55:00,
2013-05-01 17:00:00,74.0,59.2,30.23,NE,45,2.0,4.0,60,0.00,,,0.00,Wunderground v.1.15,2013-05-01 21:00:00,
2013-05-01 17:10:00,73.4,58.2,30.23,East,98,3.0,3.0,59,0.00,,,0.00,Wunderground v.1.15,2013-05-01 21:10:00,
2013-05-01 17:20:00,72.7,57.5,30.23,East,98,3.0,5.0,59,0.00,,,0.00,Wunderground v.1.15,2013-05-01 21:20:00,
2013-05-01 17:25:00,72.0,57.4,30.23,East,86,4.0,5.0,60,0.00,,,0.00,Wunderground v.1.15,2013-05-01 21:25:00,
2013-05-01 17:35:00,71.5,57.3,30.23,East,86,5.0,6.0,61,0.00,,,0.00,Wunderground v.1.15,2013-05-01 21:35:00,
2013-05-01 17:40:00,71.6,57.4,30.23,ENE,68,4.0,4.0,61,0.00,,,0.00,Wunderground v.1.15,2013-05-01 21:40:00,
2013-05-01 17:50:00,70.3,56.7,30.24,East,86,4.0,4.0,62,0.00,,,0.00,Wunderground v.1.15,2013-05-01 21:50:00,
2013-05-01 18:00:00,68.0,55.4,30.24,East,99,3.0,3.0,64,0.00,,,0.00,Wunderground v.1.15,2013-05-01 22:00:00,
2013-05-01 18:05:00,67.0,54.8,30.24,ENE,71,5.0,8.0,65,0.00,,,0.00,Wunderground v.1.15,2013-05-01 22:05:00,
2013-05-01 18:15:00,65.3,54.1,30.24,East,91,5.0,7.0,67,0.00,,,0.00,Wunderground v.1.15,2013-05-01 22:15:00,
2013-05-01 18:20:00,65.2,54.8,30.25,East,86,4.0,8.0,69,0.00,,,0.00,Wunderground v.1.15,2013-05-01 22:20:00,
2013-05-01 18:30:00,65.1,54.3,30.24,East,95,4.0,8.0,68,0.00,,,0.00,Wunderground v.1.15,2013-05-01 22:30:00,
2013-05-01 18:35:00,64.8,54.0,30.25,ESE,123,4.0,8.0,68,0.00,,,0.00,Wunderground v.1.15,2013-05-01 22:35:00,
2013-05-01 18:45:00,65.1,54.3,30.24,East,96,5.0,5.0,68,0.00,,,0.00,Wunderground v.1.15,2013-05-01 22:45:00,
2013-05-01 18:50:00,65.1,54.3,30.24,ENE,77,4.0,4.0,68,0.00,,,0.00,Wunderground v.1.15,2013-05-01 22:50:00,
2013-05-01 19:00:00,65.5,54.7,30.24,ENE,63,3.0,4.0,68,0.00,,,0.00,Wunderground v.1.15,2013-05-01 23:00:00,
2013-05-01 19:10:00,65.4,54.6,30.24,East,81,4.0,10.0,68,0.00,,,0.00,Wunderground v.1.15,2013-05-01 23:10:00,
2013-05-01 19:15:00,65.3,54.5,30.24,NE,51,4.0,10.0,68,0.00,,,0.00,Wunderground v.1.15,2013-05-01 23:15:00,
2013-05-01 19:25:00,65.4,54.2,30.24,ENE,58,5.0,9.0,67,0.00,,,0.00,Wunderground v.1.15,2013-05-01 23:25:00,
2013-05-01 19:30:00,65.3,54.5,30.24,ENE,57,4.0,4.0,68,0.00,,,0.00,Wunderground v.1.15,2013-05-01 23:30:00,
2013-05-01 19:40:00,65.0,54.2,30.24,NE,44,4.0,7.0,68,0.00,,,0.00,Wunderground v.1.15,2013-05-01 23:40:00,
2013-05-01 19:50:00,64.5,53.7,30.24,ENE,75,4.0,4.0,68,0.00,,,0.00,Wunderground v.1.15,2013-05-01 23:50:00,
2013-05-01 19:55:00,64.4,54.0,30.24,ENE,64,4.0,4.0,69,0.00,,,0.00,Wunderground v.1.15,2013-05-01 23:55:00,
2013-05-01 20:00:00,64.3,53.9,30.24,ESE,108,4.0,4.0,69,0.00,,,0.00,Wunderground v.1.15,2013-05-02 00:00:00,
2013-05-01 20:10:00,63.7,53.3,30.24,ENE,62,3.0,4.0,69,0.00,,,0.00,Wunderground v.1.15,2013-05-02 00:10:00,
2013-05-01 20:20:00,62.8,52.9,30.24,SE,134,4.0,4.0,70,0.00,,,0.00,Wunderground v.1.15,2013-05-02 00:20:00,
2013-05-01 20:25:00,62.4,52.9,30.24,East,88,4.0,5.0,71,0.00,,,0.00,Wunderground v.1.15,2013-05-02 00:25:00,
2013-05-01 20:35:00,61.8,52.7,30.25,ENE,68,4.0,9.0,72,0.00,,,0.00,Wunderground v.1.15,2013-05-02 00:35:00,
2013-05-01 20:40:00,61.4,52.7,30.25,East,86,5.0,5.0,73,0.00,,,0.00,Wunderground v.1.15,2013-05-02 00:40:00,
2013-05-01 20:50:00,60.8,52.1,30.25,ESE,108,5.0,7.0,73,0.00,,,0.00,Wunderground v.1.15,2013-05-02 00:50:00,
2013-05-01 20:55:00,60.5,51.8,30.25,East,89,5.0,10.0,73,0.00,,,0.00,Wunderground v.1.15,2013-05-02 00:55:00,
2013-05-01 21:00:00,60.3,51.6,30.25,SSE,155,5.0,5.0,73,0.00,,,0.00,Wunderground v.1.15,2013-05-02 01:00:00,
2013-05-01 21:10:00,59.7,51.4,30.25,NE,36,4.0,4.0,74,0.00,,,0.00,Wunderground v.1.15,2013-05-02 01:10:00,
2013-05-01 21:20:00,59.5,51.2,30.25,ENE,67,5.0,5.0,74,0.00,,,0.00,Wunderground v.1.15,2013-05-02 01:20:00,
2013-05-01 21:25:00,59.3,51.0,30.25,East,81,4.0,5.0,74,0.00,,,0.00,Wunderground v.1.15,2013-05-02 01:25:00,
2013-05-01 21:35:00,59.0,51.1,30.25,East,96,4.0,6.0,75,0.00,,,0.00,Wunderground v.1.15,2013-05-02 01:35:00,
2013-05-01 21:40:00,58.9,51.0,30.25,East,80,5.0,5.0,75,0.00,,,0.00,Wunderground v.1.15,2013-05-02 01:40:00,
2013-05-01 21:50:00,58.8,50.5,30.25,East,85,5.0,5.0,74,0.00,,,0.00,Wunderground v.1.15,2013-05-02 01:50:00,
2013-05-01 21:55:00,58.7,50.4,30.25,ENE,70,5.0,7.0,74,0.00,,,0.00,Wunderground v.1.15,2013-05-02 01:55:00,
2013-05-01 22:00:00,58.9,50.6,30.26,NE,56,5.0,5.0,74,0.00,,,0.00,Wunderground v.1.15,2013-05-02 02:00:00,
2013-05-01 22:10:00,58.7,50.4,30.25,East,91,4.0,4.0,74,0.00,,,0.00,Wunderground v.1.15,2013-05-02 02:10:00,
2013-05-01 22:20:00,58.4,50.1,30.26,NE,51,4.0,4.0,74,0.00,,,0.00,Wunderground v.1.15,2013-05-02 02:20:00,
2013-05-01 22:30:00,58.0,49.8,30.26,East,79,3.0,5.0,74,0.00,,,0.00,Wunderground v.1.15,2013-05-02 02:30:00,
2013-05-01 22:35:00,57.8,49.6,30.26,East,91,3.0,5.0,74,0.00,,,0.00,Wunderground v.1.15,2013-05-02 02:35:00,
2013-05-01 22:45:00,57.6,49.7,30.26,ENE,78,3.0,3.0,75,0.00,,,0.00,Wunderground v.1.15,2013-05-02 02:45:00,
2013-05-01 22:50:00,57.5,49.6,30.26,East,89,2.0,2.0,75,0.00,,,0.00,Wunderground v.1.15,2013-05-02 02:50:00,
2013-05-01 23:00:00,57.1,49.2,30.26,East,95,1.0,2.0,75,0.00,,,0.00,Wunderground v.1.15,2013-05-02 03:00:00,
2013-05-01 23:10:00,56.7,49.2,30.26,East,101,0.0,0.0,76,0.00,,,0.00,Wunderground v.1.15,2013-05-02 03:10:00,
2013-05-01 23:20:00,56.2,49.1,30.26,East,101,0.0,0.0,77,0.00,,,0.00,Wunderground v.1.15,2013-05-02 03:20:00,
2013-05-01 23:30:00,55.9,49.1,30.26,East,95,0.0,0.0,78,0.00,,,0.00,Wunderground v.1.15,2013-05-02 03:30:00,
2013-05-01 23:40:00,55.6,48.8,30.26,East,87,1.0,1.0,78,0.00,,,0.00,Wunderground v.1.15,2013-05-02 03:40:00,
2013-05-01 23:45:00,55.5,49.1,30.26,East,85,1.0,1.0,79,0.00,,,0.00,Wunderground v.1.15,2013-05-02 03:45:00,
2013-05-01 23:55:00,55.2,48.8,30.26,ENE,63,1.0,1.0,79,0.00,,,0.00,Wunderground v.1.15,2013-05-02 03:55:00,